Baie Comeau, Baie Comeau Airport (CYBC)

NameBaie Comeau Airport
CityBaie Comeau
CountryCanada
ICAOCYBC
IATAYBC
Altitude22 m
CoordinatesGoogle Map
Live Air TrafficLiveATC.net
METARCYBC 161700Z AUTO 24015G20KT 9SM OVC031 M02/M05 A2951 RMK SLP995
2019-02-16 17:00:00 Wind: Southwest (240°) 7.72 m/s - Visibility: 14484.06 m - Temperature: -2 °C - Dew point: -5 °C - Humidity: 80.2% - Pressure: 999.32 hPa

Sorry, no flights used the airport in this database.